Terminal Aerodrome Forecast
Issued by NWS Pocatello, ID

Home | Current Version | Previous Version | Text Only | Print | Product List | Glossary On
Versions: 1 2 3 4 5 6 7 8 9 10 11 12 13 14 15 16
000
FTUS45 KPIH 210500
TAFIDA
TAF
KIDA 210520Z 2106/2206 19009KT P6SM SCT200
     FM210800 VRB04KT P6SM BKN200
     FM212000 22010G15KT P6SM FEW060 BKN100
     FM220200 18011KT P6SM BKN080=

USA.gov is the U.S. government's official web portal to all federal, state and local government web resources and services.